Time;durP1;ratioP1;P1;durP2;ratioP2;P2;SDS_P1;SDS_P2;PMS_P1;PMS_P2;Temp;Humidity;BMP_temperature;BMP_pressure;BME280_temperature;BME280_humidity;BME280_pressure;Samples;Min_cycle;Max_cycle;Signal;HPM_P1;HPM_P2
2022/02/17 00:01:48;;;;;;;11.83;5.23;;;;;;;11.05;70.89;97748.94;4981966;28;20550;-68
2022/02/17 00:04:13;;;;;;;13.37;4.40;;;;;;;11.21;70.42;97775.22;4979197;28;20183;-68
2022/02/17 00:06:38;;;;;;;8.37;3.77;;;;;;;10.95;71.46;97782.34;4979667;28;20247;-67
2022/02/17 00:09:04;;;;;;;11.17;3.97;;;;;;;10.72;70.71;97781.47;4979387;28;20598;-66
2022/02/17 00:11:29;;;;;;;19.03;5.10;;;;;;;11.14;69.86;97789.44;4979167;28;20172;-66
2022/02/17 00:13:54;;;;;;;14.43;5.77;;;;;;;10.67;70.57;97783.41;4979495;28;20175;-69
2022/02/17 00:16:20;;;;;;;14.30;4.67;;;;;;;10.75;69.38;97783.94;4979185;28;20251;-66
2022/02/17 00:18:45;;;;;;;8.87;4.30;;;;;;;11.20;68.81;97789.16;4998891;28;20226;-66
2022/02/17 00:21:11;;;;;;;15.50;5.40;;;;;;;11.18;68.18;97788.41;5003021;28;20254;-68
2022/02/17 00:23:36;;;;;;;15.90;5.60;;;;;;;11.20;67.68;97797.81;5002501;28;20186;-68
2022/02/17 00:26:01;;;;;;;11.87;4.97;;;;;;;10.78;67.52;97796.00;5002934;28;20198;-68
2022/02/17 00:28:26;;;;;;;12.00;4.10;;;;;;;10.52;68.50;97790.03;5005232;28;20546;-66
2022/02/17 00:30:52;;;;;;;14.00;5.30;;;;;;;10.65;67.87;97790.44;5003912;28;20552;-67
2022/02/17 00:33:17;;;;;;;17.50;6.50;;;;;;;10.64;67.32;97804.38;5004540;28;20254;-67
2022/02/17 00:35:43;;;;;;;14.80;4.50;;;;;;;10.74;66.66;97803.13;5003508;28;20215;-66
2022/02/17 00:38:08;;;;;;;17.20;4.60;;;;;;;10.62;66.72;97811.38;5002119;28;20196;-66
2022/02/17 00:40:34;;;;;;;16.67;5.07;;;;;;;10.55;66.46;97808.19;5002475;28;20266;-67
2022/02/17 00:42:59;;;;;;;8.13;4.30;;;;;;;10.33;66.26;97796.81;5002741;28;20319;-67
2022/02/17 00:45:24;;;;;;;12.40;5.00;;;;;;;10.57;65.70;97802.91;5002427;28;20175;-67
2022/02/17 00:47:50;;;;;;;11.50;4.63;;;;;;;10.67;65.68;97811.22;5002284;28;20262;-67
2022/02/17 00:50:16;;;;;;;14.43;5.70;;;;;;;10.59;65.38;97806.28;5002791;28;20179;-67
2022/02/17 00:52:41;;;;;;;13.50;4.40;;;;;;;10.77;64.90;97809.94;5002867;28;20442;-67
2022/02/17 00:55:07;;;;;;;15.20;5.90;;;;;;;10.50;65.46;97812.72;5003650;28;20587;-66
2022/02/17 00:57:32;;;;;;;19.37;4.60;;;;;;;10.48;64.99;97814.50;5003182;28;20196;-67
2022/02/17 00:59:57;;;;;;;14.17;4.77;;;;;;;10.81;64.01;97792.44;5001817;28;20183;-67
2022/02/17 01:02:23;;;;;;;7.17;3.40;;;;;;;10.26;64.91;97807.44;5001913;28;20172;-65
2022/02/17 01:04:48;;;;;;;11.37;4.90;;;;;;;10.87;63.85;97811.31;4984943;28;20175;-68
2022/02/17 01:07:14;;;;;;;17.53;5.80;;;;;;;10.60;63.11;97795.81;5001776;28;20414;-65
2022/02/17 01:09:39;;;;;;;11.13;4.40;;;;;;;11.00;62.29;97805.59;5001773;28;20172;-67
2022/02/17 01:12:05;;;;;;;13.10;4.23;;;;;;;10.69;63.13;97796.38;5002149;28;20564;-65
2022/02/17 01:14:30;;;;;;;10.13;4.40;;;;;;;10.77;63.23;97796.91;5001710;28;20546;-66
2022/02/17 01:16:55;;;;;;;15.53;4.50;;;;;;;10.87;62.80;97802.66;5001416;28;20215;-71
2022/02/17 01:19:21;;;;;;;8.63;5.23;;;;;;;11.07;63.34;97826.16;5001777;28;20179;-68
2022/02/17 01:21:46;;;;;;;10.40;4.93;;;;;;;10.91;63.88;97809.44;5001596;28;20171;-68
2022/02/17 01:24:12;;;;;;;10.33;4.40;;;;;;;10.68;63.58;97795.53;5001481;28;20175;-68
2022/02/17 01:26:37;;;;;;;16.03;5.47;;;;;;;10.81;63.95;97779.41;5002097;28;20164;-67
2022/02/17 01:29:03;;;;;;;10.03;4.23;;;;;;;10.57;63.90;97782.06;5001854;28;20172;-67
2022/02/17 01:31:28;;;;;;;13.93;4.60;;;;;;;10.43;63.99;97773.03;5000588;28;20207;-67
2022/02/17 01:33:54;;;;;;;14.17;4.20;;;;;;;10.77;62.47;97750.88;5001332;28;20294;-67
2022/02/17 01:36:19;;;;;;;8.93;4.87;;;;;;;10.63;62.09;97760.97;5001176;28;20211;-67
2022/02/17 01:38:44;;;;;;;9.20;4.20;;;;;;;10.61;61.48;97757.59;5001416;28;20251;-68
2022/02/17 01:41:10;;;;;;;10.13;3.73;;;;;;;10.74;60.99;97757.97;5001916;28;20450;-67
2022/02/17 01:43:36;;;;;;;16.03;5.03;;;;;;;10.84;61.43;97774.06;4984980;28;20225;-68
2022/02/17 01:46:02;;;;;;;12.70;4.47;;;;;;;10.78;61.13;97760.41;5002388;28;20246;-67
2022/02/17 01:48:27;;;;;;;9.37;3.60;;;;;;;10.78;60.50;97773.44;5001334;28;20188;-69
2022/02/17 01:50:53;;;;;;;9.03;4.13;;;;;;;10.65;61.07;97753.97;5001497;28;20393;-68
2022/02/17 01:53:19;;;;;;;10.13;4.47;;;;;;;10.77;60.67;97755.22;5001264;28;20567;-67
2022/02/17 01:55:48;;;;;;;8.80;3.80;;;;;;;10.55;60.81;97737.84;4984042;28;20558;-67
2022/02/17 01:58:14;;;;;;;5.77;3.80;;;;;;;10.58;60.64;97761.16;5001871;28;20442;-67
2022/02/17 02:00:41;;;;;;;14.03;4.43;;;;;;;10.68;59.83;97737.38;5002262;28;20682;-67
2022/02/17 02:03:10;;;;;;;11.37;4.27;;;;;;;10.58;59.34;97757.69;4984551;28;20415;-67
2022/02/17 02:05:36;;;;;;;12.10;4.70;;;;;;;10.95;59.40;97741.47;4984064;28;20410;-67
2022/02/17 02:08:02;;;;;;;8.60;4.87;;;;;;;10.99;58.81;97743.94;5001347;28;20418;-69
2022/02/17 02:10:28;;;;;;;16.73;4.13;;;;;;;10.90;59.00;97737.34;5000615;28;20183;-67
2022/02/17 02:12:53;;;;;;;10.53;4.50;;;;;;;10.71;58.76;97740.69;5000699;28;20480;-68
2022/02/17 02:15:18;;;;;;;12.90;3.70;;;;;;;10.61;56.94;97728.94;5001146;28;20175;-67
2022/02/17 02:17:44;;;;;;;9.03;4.07;;;;;;;10.74;57.56;97779.69;5000572;28;20219;-67
2022/02/17 02:20:16;;;;;;;10.30;4.43;;;;;;;10.51;57.34;97735.41;5000433;28;20178;-67
2022/02/17 02:22:42;;;;;;;9.00;3.73;;;;;;;10.33;56.73;97731.72;5000805;28;20439;-67
2022/02/17 02:25:08;;;;;;;11.23;5.30;;;;;;;10.45;56.22;97742.53;4983776;28;20393;-68
2022/02/17 02:27:34;;;;;;;7.63;3.53;;;;;;;10.84;55.64;97774.94;5000624;28;20271;-68
2022/02/17 02:29:59;;;;;;;13.03;4.50;;;;;;;10.66;56.07;97758.25;5000952;28;20407;-67
2022/02/17 02:32:24;;;;;;;12.67;4.87;;;;;;;10.50;56.03;97770.16;5000237;28;20552;-67
2022/02/17 02:34:50;;;;;;;13.33;4.30;;;;;;;10.59;57.09;97764.63;5000032;28;20658;-68
2022/02/17 02:37:15;;;;;;;11.20;4.50;;;;;;;10.67;56.42;97767.78;5000566;28;20210;-67
2022/02/17 02:39:40;;;;;;;15.90;5.23;;;;;;;10.24;57.49;97766.75;4983444;28;20175;-67
2022/02/17 02:42:06;;;;;;;15.90;4.60;;;;;;;10.21;57.49;97782.50;4999414;28;20176;-67
2022/02/17 02:44:32;;;;;;;11.00;4.53;;;;;;;10.13;56.93;97771.53;5000017;28;20179;-67
2022/02/17 02:46:58;;;;;;;14.10;4.60;;;;;;;9.89;57.17;97766.28;5000305;28;20582;-67
2022/02/17 02:49:23;;;;;;;16.83;5.70;;;;;;;10.36;56.18;97776.75;5000196;28;20419;-68
2022/02/17 02:51:49;;;;;;;10.80;5.10;;;;;;;10.20;57.35;97794.69;5000355;28;20171;-67
2022/02/17 02:54:14;;;;;;;12.67;4.67;;;;;;;10.87;57.43;97794.81;4999996;28;20447;-69
2022/02/17 02:56:40;;;;;;;15.30;4.87;;;;;;;10.01;57.56;97789.28;4999859;28;20460;-69
2022/02/17 02:59:05;;;;;;;12.67;5.00;;;;;;;10.19;57.98;97798.19;5000176;28;20634;-67
2022/02/17 03:01:31;;;;;;;15.03;4.80;;;;;;;10.14;58.77;97804.47;4999838;28;20180;-67
2022/02/17 03:03:56;;;;;;;16.23;4.27;;;;;;;10.06;58.85;97795.16;4999704;28;20190;-67
2022/02/17 03:06:21;;;;;;;11.23;4.13;;;;;;;10.19;58.16;97808.59;5000488;28;20246;-68
2022/02/17 03:08:47;;;;;;;9.60;3.83;;;;;;;9.71;59.20;97812.00;4983066;28;20266;-67
2022/02/17 03:11:13;;;;;;;15.83;4.20;;;;;;;9.81;58.67;97820.34;4999775;28;20225;-67
2022/02/17 03:13:38;;;;;;;11.77;4.77;;;;;;;9.54;59.10;97802.16;4999948;28;20199;-68
2022/02/17 03:16:04;;;;;;;18.03;4.60;;;;;;;9.66;59.36;97791.38;4999388;28;20448;-67
2022/02/17 03:18:29;;;;;;;11.13;4.13;;;;;;;9.66;59.45;97812.16;4999523;28;20463;-67
2022/02/17 03:20:55;;;;;;;6.47;3.40;;;;;;;9.29;60.12;97795.19;5000126;28;20187;-67
2022/02/17 03:23:20;;;;;;;9.47;4.23;;;;;;;9.83;59.28;97810.75;4999443;28;20179;-69
2022/02/17 03:25:45;;;;;;;16.77;4.77;;;;;;;9.95;58.65;97805.09;4999580;28;20213;-67
2022/02/17 03:28:11;;;;;;;18.33;5.00;;;;;;;9.83;59.49;97814.19;4999886;28;20190;-68
2022/02/17 03:30:36;;;;;;;17.03;5.40;;;;;;;9.71;59.58;97812.00;4999414;28;20260;-67
2022/02/17 03:33:02;;;;;;;8.80;4.40;;;;;;;9.46;60.11;97814.56;4999040;28;20266;-73
2022/02/17 03:35:27;;;;;;;11.93;4.80;;;;;;;9.71;59.47;97827.63;4999096;28;20335;-67
2022/02/17 03:37:52;;;;;;;11.90;4.43;;;;;;;9.34;60.22;97808.88;4999104;28;20239;-67
2022/02/17 03:40:18;;;;;;;13.20;4.77;;;;;;;9.36;60.29;97822.69;4999903;28;20171;-68
2022/02/17 03:42:43;;;;;;;11.60;4.40;;;;;;;9.43;60.07;97829.38;4999071;28;20489;-67
2022/02/17 03:45:09;;;;;;;13.83;4.77;;;;;;;9.72;60.02;97824.13;4999312;28;20238;-68
2022/02/17 03:47:35;;;;;;;11.50;4.17;;;;;;;9.56;60.15;97834.19;4999557;28;20164;-67
2022/02/17 03:50:00;;;;;;;10.50;3.47;;;;;;;9.26;60.23;97832.50;5001077;28;20862;-67
2022/02/17 03:52:28;;;;;;;9.23;4.47;;;;;;;9.26;60.35;97842.06;5007130;28;20172;-68
2022/02/17 03:54:53;;;;;;;11.03;4.00;;;;;;;9.43;60.08;97824.19;5001460;28;20560;-67
2022/02/17 03:57:18;;;;;;;13.73;4.57;;;;;;;9.54;60.02;97849.84;4982157;28;20466;-68
2022/02/17 03:59:44;;;;;;;13.03;4.70;;;;;;;9.74;59.97;97849.19;4999378;28;20203;-67
2022/02/17 04:02:09;;;;;;;10.50;3.87;;;;;;;9.50;59.31;97843.03;4999556;28;20537;-68
2022/02/17 04:04:35;;;;;;;13.77;5.33;;;;;;;9.49;60.00;97848.28;4998895;28;20171;-68
2022/02/17 04:07:00;;;;;;;12.63;4.97;;;;;;;9.59;59.47;97844.47;4999009;28;20171;-69
2022/02/17 04:09:26;;;;;;;13.40;5.43;;;;;;;9.49;60.00;97856.94;4999389;28;20174;-67
2022/02/17 04:11:51;;;;;;;16.87;5.10;;;;;;;9.60;59.14;97835.78;4998620;28;20541;-67
2022/02/17 04:14:16;;;;;;;13.30;4.70;;;;;;;9.64;58.95;97855.56;4998667;28;20175;-67
2022/02/17 04:16:41;;;;;;;11.80;4.70;;;;;;;9.25;60.26;97861.16;4999217;28;20214;-68
2022/02/17 04:19:07;;;;;;;12.23;4.80;;;;;;;9.47;59.32;97843.16;4998848;28;20171;-67
2022/02/17 04:21:32;;;;;;;17.50;5.60;;;;;;;9.15;60.27;97850.22;4998886;28;20545;-68
2022/02/17 04:23:58;;;;;;;12.87;5.13;;;;;;;9.39;60.52;97853.78;4998839;28;20164;-68
2022/02/17 04:26:23;;;;;;;13.00;4.70;;;;;;;9.37;60.00;97850.38;4998857;28;20167;-67
2022/02/17 04:28:49;;;;;;;12.23;5.00;;;;;;;9.48;60.21;97841.38;4998960;28;20385;-67
2022/02/17 04:31:15;;;;;;;13.83;5.73;;;;;;;9.43;61.31;97859.72;4999062;28;20164;-68
2022/02/17 04:33:41;;;;;;;15.80;5.87;;;;;;;9.57;60.88;97887.91;4998396;28;20226;-67
2022/02/17 04:36:07;;;;;;;10.33;4.80;;;;;;;9.34;61.21;97881.69;4998729;28;20448;-69
2022/02/17 04:38:33;;;;;;;12.33;4.70;;;;;;;9.18;62.32;97873.50;4999340;28;20397;-69
2022/02/17 04:43:44;;;;;;;14.80;4.70;;;;;;;9.35;61.11;97890.31;4998882;28;20226;-68
2022/02/17 04:46:09;;;;;;;11.13;4.90;;;;;;;9.15;61.72;97885.75;4998578;28;20656;-68
2022/02/17 04:48:35;;;;;;;20.90;4.57;;;;;;;8.91;61.61;97885.59;4998578;28;20481;-68
2022/02/17 04:51:01;;;;;;;17.73;5.50;;;;;;;8.91;61.76;97883.00;4999088;28;20254;-69
2022/02/17 04:53:27;;;;;;;9.70;5.00;;;;;;;8.85;63.30;97888.34;4998015;28;20180;-67
2022/02/17 04:55:52;;;;;;;9.90;4.70;;;;;;;8.63;63.36;97895.94;4998456;28;20386;-68
2022/02/17 04:58:17;;;;;;;13.37;5.20;;;;;;;9.02;62.47;97906.06;4999100;28;20168;-67
2022/02/17 05:00:44;;;;;;;14.30;5.47;;;;;;;8.73;62.75;97900.81;4998427;28;20435;-67
2022/02/17 05:03:10;;;;;;;16.37;4.60;;;;;;;8.72;64.14;97878.31;4998279;28;20407;-67
2022/02/17 05:05:35;;;;;;;11.20;4.83;;;;;;;8.85;63.23;97872.75;4999524;28;20442;-67
2022/02/17 05:08:01;;;;;;;14.00;4.90;;;;;;;8.61;63.91;97875.19;5001835;28;20469;-67
2022/02/17 05:10:26;;;;;;;17.30;4.67;;;;;;;8.98;62.07;97887.09;5001893;28;20176;-67
2022/02/17 05:12:51;;;;;;;8.57;4.03;;;;;;;8.60;63.35;97904.66;5002464;28;20573;-67
2022/02/17 05:15:17;;;;;;;9.00;4.00;;;;;;;8.58;63.97;97909.06;5001920;28;20175;-68
2022/02/17 05:17:42;;;;;;;11.00;4.43;;;;;;;8.56;64.30;97883.09;5001768;28;20211;-67
2022/02/17 05:20:08;;;;;;;18.33;4.83;;;;;;;8.58;65.05;97909.06;5002073;28;20172;-67
2022/02/17 05:22:39;;;;;;;14.37;5.50;;;;;;;8.29;66.05;97908.06;5001532;28;20477;-68
2022/02/17 05:25:04;;;;;;;11.80;4.70;;;;;;;8.55;65.77;97888.34;5001622;28;20203;-68
2022/02/17 05:27:30;;;;;;;15.80;6.40;;;;;;;8.70;66.18;97874.94;5001679;28;20442;-68
2022/02/17 05:29:55;;;;;;;10.73;5.03;;;;;;;8.43;66.01;97885.19;5001452;28;20226;-68
2022/02/17 05:32:20;;;;;;;17.13;5.50;;;;;;;8.46;65.88;97906.78;4984337;28;20180;-67
2022/02/17 05:34:46;;;;;;;16.77;4.10;;;;;;;8.07;66.03;97877.47;5001238;28;20223;-67
2022/02/17 05:37:11;;;;;;;13.07;4.90;;;;;;;8.39;65.51;97869.75;5001278;28;20289;-66
2022/02/17 05:39:36;;;;;;;15.87;4.83;;;;;;;8.76;65.76;97866.94;4984550;28;20179;-67
2022/02/17 05:42:02;;;;;;;7.60;4.57;;;;;;;8.56;65.82;97903.03;5001123;28;20489;-67
2022/02/17 05:44:27;;;;;;;12.20;4.07;;;;;;;8.25;65.85;97909.03;5001040;28;20234;-67
2022/02/17 05:46:52;;;;;;;9.30;3.90;;;;;;;8.16;66.83;97898.88;5001676;28;20243;-68
2022/02/17 05:49:18;;;;;;;13.53;4.90;;;;;;;8.21;68.14;97894.44;5001197;28;20540;-67
2022/02/17 05:51:43;;;;;;;10.77;4.67;;;;;;;8.14;68.86;97905.88;5000959;28;20232;-67
2022/02/17 05:54:09;;;;;;;13.30;4.43;;;;;;;8.19;68.71;97915.25;5001234;28;20247;-67
2022/02/17 05:56:34;;;;;;;19.33;5.60;;;;;;;8.31;69.41;97934.84;5001089;28;20513;-68
2022/02/17 05:58:59;;;;;;;20.07;5.17;;;;;;;8.23;71.34;97944.56;5000958;28;20168;-67
2022/02/17 06:01:25;;;;;;;13.73;4.70;;;;;;;7.67;71.04;97930.38;5001379;28;20172;-67
2022/02/17 06:03:50;;;;;;;15.67;4.83;;;;;;;7.67;72.59;97937.28;5000777;28;20167;-69
2022/02/17 06:06:15;;;;;;;17.63;5.17;;;;;;;7.70;72.32;97934.66;5000599;28;20187;-68
2022/02/17 06:08:41;;;;;;;9.50;4.43;;;;;;;8.01;71.92;97942.53;5001241;28;20525;-68
2022/02/17 06:11:06;;;;;;;15.63;4.50;;;;;;;7.69;71.45;97958.88;5000972;28;20206;-69
2022/02/17 06:13:31;;;;;;;12.70;4.27;;;;;;;7.95;71.05;97950.44;5000699;28;20476;-67
2022/02/17 06:15:56;;;;;;;20.20;6.03;;;;;;;7.94;71.59;97969.47;5001238;28;20525;-68
2022/02/17 06:18:22;;;;;;;17.10;5.87;;;;;;;8.11;71.72;97999.38;5000479;28;20180;-68
2022/02/17 06:20:48;;;;;;;15.20;5.23;;;;;;;8.19;73.47;97987.91;5000548;28;20202;-69
2022/02/17 06:23:13;;;;;;;18.83;4.90;;;;;;;7.89;72.92;97984.34;5000785;28;20230;-68
2022/02/17 06:25:38;;;;;;;13.40;5.23;;;;;;;7.73;73.84;97992.47;4983412;28;20176;-66
2022/02/17 06:28:04;;;;;;;13.67;5.30;;;;;;;7.74;73.66;98016.66;5000836;28;20175;-67
2022/02/17 06:30:29;;;;;;;12.17;6.53;;;;;;;7.73;74.17;98025.31;5000556;28;20176;-67
2022/02/17 06:32:56;;;;;;;17.70;6.00;;;;;;;7.79;73.89;98001.00;5001188;28;20180;-68
2022/02/17 06:35:23;;;;;;;17.53;4.90;;;;;;;7.48;75.64;98050.94;4984135;28;20314;-69
2022/02/17 06:37:50;;;;;;;15.30;5.17;;;;;;;7.76;74.94;98062.41;5002048;28;20466;-68
2022/02/17 06:40:16;;;;;;;18.90;5.37;;;;;;;7.45;76.36;98028.50;5000187;28;20422;-68
2022/02/17 06:42:41;;;;;;;15.63;5.37;;;;;;;7.73;75.56;98061.63;4983264;28;20390;-69
2022/02/17 06:45:06;;;;;;;14.93;4.80;;;;;;;7.73;75.27;98049.50;5000611;28;20410;-68
2022/02/17 06:47:32;;;;;;;18.03;5.17;;;;;;;7.70;75.90;98062.56;5000042;28;20455;-67
2022/02/17 06:49:57;;;;;;;14.07;5.00;;;;;;;7.50;75.86;98082.88;5000379;28;20226;-68
2022/02/17 06:52:22;;;;;;;13.90;5.07;;;;;;;7.88;76.35;98073.41;5000769;28;20269;-69
2022/02/17 06:54:48;;;;;;;18.00;4.73;;;;;;;7.54;75.93;98097.47;5000257;28;20413;-68
2022/02/17 06:57:20;;;;;;;13.23;5.60;;;;;;;7.65;75.60;98054.00;4999700;28;20203;-68
2022/02/17 06:59:46;;;;;;;20.67;5.20;;;;;;;7.66;75.08;98107.59;5000307;28;20215;-67
2022/02/17 07:02:11;;;;;;;8.40;4.47;;;;;;;7.59;74.64;98106.03;4999966;28;20855;-66
2022/02/17 07:04:37;;;;;;;12.50;4.80;;;;;;;7.57;74.02;98097.41;4999684;28;20239;-67
2022/02/17 07:07:02;;;;;;;12.57;5.10;;;;;;;8.26;73.02;98128.75;5000385;28;20490;-67
2022/02/17 07:09:27;;;;;;;12.50;4.63;;;;;;;7.76;72.49;98123.78;4982763;28;20233;-67
2022/02/17 07:11:54;;;;;;;16.20;5.13;;;;;;;7.92;72.80;98116.53;4999904;28;20551;-66
2022/02/17 07:14:21;;;;;;;23.33;6.10;;;;;;;7.96;72.36;98141.53;4999843;28;20569;-68
2022/02/17 07:16:46;;;;;;;15.10;5.30;;;;;;;7.86;72.65;98145.19;4999399;28;20494;-68
2022/02/17 07:19:11;;;;;;;15.53;6.03;;;;;;;7.90;72.59;98114.00;4999492;28;20441;-68
2022/02/17 07:21:37;;;;;;;14.90;4.90;;;;;;;7.81;74.12;98180.78;4999534;28;20168;-67
2022/02/17 07:24:02;;;;;;;9.00;4.97;;;;;;;7.84;74.37;98184.16;4999182;28;20187;-67
2022/02/17 07:26:27;;;;;;;14.17;5.07;;;;;;;7.80;75.66;98192.03;4982751;28;20186;-67
2022/02/17 07:28:56;;;;;;;7.77;4.00;;;;;;;7.36;76.16;98221.38;4982845;28;20206;-67
2022/02/17 07:31:21;;;;;;;15.30;5.00;;;;;;;7.32;77.08;98203.28;5000140;28;20175;-68
2022/02/17 07:33:46;;;;;;;15.83;4.97;;;;;;;7.61;77.35;98233.88;4999555;28;20867;-67
2022/02/17 07:36:12;;;;;;;20.57;4.40;;;;;;;7.28;78.00;98218.06;4982786;28;20563;-67
2022/02/17 07:38:37;;;;;;;8.93;3.80;;;;;;;7.25;78.11;98238.81;4999107;28;20216;-67
2022/02/17 07:41:03;;;;;;;18.93;4.80;;;;;;;7.15;79.01;98261.47;4999207;28;20183;-67
2022/02/17 07:43:28;;;;;;;12.50;4.70;;;;;;;7.31;78.42;98258.63;4999458;28;20172;-68
2022/02/17 07:45:54;;;;;;;9.90;4.20;;;;;;;7.07;80.11;98273.69;4999316;28;20418;-68
2022/02/17 07:48:19;;;;;;;10.47;4.23;;;;;;;7.74;78.50;98289.81;4999124;28;20234;-68
2022/02/17 07:50:44;;;;;;;15.87;4.63;;;;;;;7.36;78.81;98290.47;4999952;28;20226;-69
2022/02/17 07:53:10;;;;;;;11.10;4.20;;;;;;;7.53;77.87;98310.94;4999276;28;20521;-67
2022/02/17 07:55:35;;;;;;;8.00;3.87;;;;;;;7.10;78.87;98328.03;4998918;28;20226;-69
2022/02/17 07:58:04;;;;;;;13.53;4.37;;;;;;;7.67;77.01;98336.63;4999224;28;20503;-67
2022/02/17 08:00:30;;;;;;;10.70;3.80;;;;;;;7.61;77.90;98340.19;4998724;28;20538;-68
2022/02/17 08:02:55;;;;;;;14.80;4.80;;;;;;;7.64;78.37;98353.09;4998756;28;20486;-67
2022/02/17 08:05:21;;;;;;;9.97;4.30;;;;;;;7.31;79.33;98370.06;4999433;28;20194;-66
2022/02/17 08:07:46;;;;;;;11.80;4.33;;;;;;;7.14;80.96;98383.25;4999050;28;20237;-67
2022/02/17 08:10:11;;;;;;;11.73;4.40;;;;;;;7.24;80.77;98346.81;4982718;28;20221;-68
2022/02/17 08:12:41;;;;;;;11.97;5.23;;;;;;;7.50;79.80;98418.13;5000083;28;20335;-67
2022/02/17 08:15:06;;;;;;;10.77;4.27;;;;;;;7.47;79.81;98409.53;4998823;28;20258;-67
2022/02/17 08:17:32;;;;;;;12.70;4.60;;;;;;;7.51;79.03;98403.44;4998490;28;20814;-68
2022/02/17 08:19:57;;;;;;;9.20;3.57;;;;;;;7.23;79.03;98403.84;4999169;28;20176;-68
2022/02/17 08:22:22;;;;;;;16.50;4.67;;;;;;;7.38;79.12;98426.94;4998662;28;20572;-67
2022/02/17 08:24:48;;;;;;;17.70;4.53;;;;;;;7.41;78.50;98423.47;4998361;28;20545;-67
2022/02/17 08:27:13;;;;;;;15.70;5.37;;;;;;;7.83;78.14;98453.94;4999106;28;20167;-69
2022/02/17 08:29:38;;;;;;;15.13;5.13;;;;;;;7.39;78.29;98440.78;4998697;28;20191;-67
2022/02/17 08:32:04;;;;;;;8.80;4.20;;;;;;;8.60;78.89;98457.81;4998592;28;20179;-61
2022/02/17 08:34:29;;;;;;;13.17;5.37;;;;;;;9.91;71.81;98454.94;4994888;28;20235;-60
2022/02/17 08:36:54;;;;;;;14.70;4.50;;;;;;;9.17;72.76;98485.22;4987232;28;20216;-73
2022/02/17 08:39:20;;;;;;;12.13;5.53;;;;;;;7.50;76.89;98472.59;4988693;28;20238;-69
2022/02/17 08:41:45;;;;;;;10.90;4.50;;;;;;;7.51;77.40;98509.72;4984008;28;20571;-70
2022/02/17 08:44:11;;;;;;;14.40;4.50;;;;;;;7.38;78.43;98501.28;4987390;28;20448;-70
2022/02/17 08:46:36;;;;;;;10.83;4.57;;;;;;;7.41;78.93;98517.66;4983050;28;20168;-70
2022/02/17 08:49:02;;;;;;;13.93;5.17;;;;;;;7.37;79.01;98538.44;4982562;28;20207;-68
2022/02/17 08:51:29;;;;;;;15.20;4.80;;;;;;;7.62;78.15;98553.66;4985210;28;20247;-68
2022/02/17 08:53:56;;;;;;;8.07;4.50;;;;;;;7.25;79.58;98562.75;4985834;28;20384;-68
2022/02/17 08:56:21;;;;;;;14.07;5.70;;;;;;;7.46;79.67;98571.19;5002036;28;20532;-71
2022/02/17 08:58:47;;;;;;;15.93;4.67;;;;;;;7.51;79.95;98570.22;5002049;28;20530;-69
2022/02/17 09:01:13;;;;;;;15.37;4.50;;;;;;;7.02;81.05;98576.88;5002176;28;20436;-67
2022/02/17 09:03:38;;;;;;;14.40;5.20;;;;;;;7.58;79.64;98579.63;5001696;28;20175;-69
2022/02/17 09:06:03;;;;;;;17.70;6.77;;;;;;;7.36;79.84;98586.84;5001918;28;20505;-67
2022/02/17 09:08:28;;;;;;;14.53;4.63;;;;;;;7.35;79.33;98618.81;4998250;28;20160;-69
2022/02/17 09:10:56;;;;;;;14.77;6.43;;;;;;;7.36;78.69;98615.34;4982328;28;20549;-68
2022/02/17 09:13:21;;;;;;;13.10;4.83;;;;;;;7.30;79.71;98624.94;4982230;28;20172;-67
2022/02/17 09:15:47;;;;;;;7.50;4.13;;;;;;;7.20;80.29;98626.78;4982378;28;20423;-68
2022/02/17 09:18:12;;;;;;;13.83;4.93;;;;;;;7.52;79.95;98651.44;4982020;28;20223;-68
2022/02/17 09:20:38;;;;;;;15.70;4.50;;;;;;;7.53;79.90;98635.03;4981933;28;20168;-68
2022/02/17 09:23:03;;;;;;;13.30;4.57;;;;;;;7.48;79.66;98652.38;4984448;28;20406;-66
2022/02/17 09:25:29;;;;;;;13.00;5.27;;;;;;;7.63;78.83;98664.28;4982279;28;20183;-70
2022/02/17 09:27:54;;;;;;;12.30;4.73;;;;;;;7.70;78.12;98689.28;4982068;28;20176;-71
2022/02/17 09:30:20;;;;;;;12.13;4.50;;;;;;;7.42;79.33;98690.44;4982310;28;20406;-68
2022/02/17 09:32:45;;;;;;;15.60;4.40;;;;;;;7.58;79.01;98696.31;4981681;28;20239;-67
2022/02/17 09:35:11;;;;;;;13.90;4.43;;;;;;;7.41;78.73;98713.78;4997102;28;20861;-66
2022/02/17 09:37:37;;;;;;;7.90;3.60;;;;;;;7.39;78.37;98718.16;5001612;28;20263;-68
2022/02/17 09:40:04;;;;;;;10.93;3.77;;;;;;;7.38;78.63;98724.19;4984404;28;20482;-69
2022/02/17 09:42:36;;;;;;;14.83;4.60;;;;;;;7.23;78.69;98726.06;5000959;28;20484;-68
2022/02/17 09:45:03;;;;;;;7.53;3.63;;;;;;;7.40;78.52;98731.09;5001470;28;20407;-69
2022/02/17 09:47:28;;;;;;;12.37;4.20;;;;;;;7.66;77.57;98735.16;5000923;28;20425;-68
2022/02/17 09:49:54;;;;;;;10.73;4.20;;;;;;;7.50;78.22;98746.56;5001171;28;20411;-67
2022/02/17 09:52:19;;;;;;;11.83;4.60;;;;;;;7.51;78.55;98761.22;5000732;28;20174;-68
2022/02/17 09:54:45;;;;;;;10.30;4.30;;;;;;;7.79;78.13;98772.16;5000770;28;20172;-70
2022/02/17 09:57:10;;;;;;;10.33;4.43;;;;;;;7.84;77.44;98785.09;4990167;28;20239;-69
2022/02/17 09:59:36;;;;;;;8.90;3.87;;;;;;;7.75;77.83;98789.53;5000931;28;20190;-69
2022/02/17 10:02:03;;;;;;;9.70;3.50;;;;;;;7.59;77.93;98806.97;4999652;28;20180;-69
2022/02/17 10:04:29;;;;;;;13.17;3.90;;;;;;;7.92;76.57;98817.84;5000136;28;20444;-69
2022/02/17 10:06:57;;;;;;;9.47;4.40;;;;;;;7.62;77.26;98826.81;5000891;28;20421;-69
2022/02/17 10:09:45;;;;;;;6.93;3.50;;;;;;;7.66;77.60;98838.88;5000634;28;20415;-70
2022/02/17 10:12:12;;;;;;;8.60;3.70;;;;;;;7.78;76.59;98831.84;5000415;28;20423;-69
2022/02/17 10:14:39;;;;;;;9.67;3.90;;;;;;;7.96;76.77;98849.84;5000199;28;20419;-70
2022/02/17 10:17:13;;;;;;;13.47;3.93;;;;;;;7.64;77.90;98860.50;5000177;28;20469;-70
2022/02/17 10:19:47;;;;;;;16.80;4.37;;;;;;;8.16;76.38;98865.19;5000776;28;20430;-70
2022/02/17 10:22:34;;;;;;;11.43;4.13;;;;;;;7.41;78.72;98875.41;5000404;28;20430;-71
2022/02/17 10:25:00;;;;;;;10.37;3.43;;;;;;;7.84;78.16;98907.03;4998765;28;20501;-70
2022/02/17 10:27:30;;;;;;;10.10;4.50;;;;;;;7.75;77.91;98903.66;5000403;28;20879;-66
2022/02/17 10:30:07;;;;;;;12.90;4.20;;;;;;;8.06;76.71;98900.78;4999783;28;20464;-66
2022/02/17 10:32:33;;;;;;;13.73;4.63;;;;;;;8.04;76.56;98912.91;5000365;28;20388;-64
2022/02/17 10:35:25;;;;;;;5.67;3.60;;;;;;;8.39;76.62;98918.63;4999689;28;20437;-69
2022/02/17 10:37:52;;;;;;;14.33;4.80;;;;;;;7.89;77.31;98934.66;4995540;28;20302;-69
2022/02/17 10:40:22;;;;;;;9.77;4.20;;;;;;;7.73;77.94;98939.09;5000215;28;20429;-66
2022/02/17 10:43:00;;;;;;;8.70;4.30;;;;;;;8.00;77.35;98944.94;4999651;28;20404;-68
2022/02/17 10:45:26;;;;;;;15.43;3.93;;;;;;;7.89;77.25;98950.22;4999889;28;20863;-70
2022/02/17 10:47:51;;;;;;;10.67;3.90;;;;;;;7.93;76.18;98956.25;4999595;28;20415;-68
2022/02/17 10:50:20;;;;;;;10.20;3.80;;;;;;;7.75;76.09;98965.91;4999944;28;20163;-69
2022/02/17 10:52:46;;;;;;;12.03;4.10;;;;;;;8.60;74.58;98959.09;4999564;28;20172;-68
2022/02/17 10:55:14;;;;;;;9.03;4.27;;;;;;;8.32;73.20;98954.16;4999671;28;20429;-68
2022/02/17 10:57:40;;;;;;;8.90;4.00;;;;;;;8.20;73.88;98968.13;5000092;28;20557;-68
2022/02/17 11:00:21;;;;;;;8.50;3.97;;;;;;;8.47;72.87;98984.34;4999557;28;20413;-69
2022/02/17 11:02:48;;;;;;;9.63;3.40;;;;;;;8.02;72.25;98983.84;4998833;28;20418;-68
2022/02/17 11:05:14;;;;;;;10.07;3.00;;;;;;;8.36;71.19;98992.22;4999379;28;20514;-67
2022/02/17 11:07:41;;;;;;;10.10;4.23;;;;;;;8.62;71.39;98996.31;5000136;28;20434;-68
2022/02/17 11:10:08;;;;;;;10.40;3.90;;;;;;;8.38;71.18;98993.03;4998917;28;20429;-68
2022/02/17 11:12:34;;;;;;;11.20;3.20;;;;;;;8.02;72.54;99018.44;4999615;28;20678;-69
2022/02/17 11:15:00;;;;;;;3.57;3.10;;;;;;;7.70;73.57;99014.34;4999072;28;20429;-69
2022/02/17 11:17:25;;;;;;;6.50;3.20;;;;;;;7.99;73.22;99018.47;4999007;28;20239;-70
2022/02/17 11:19:52;;;;;;;10.13;3.60;;;;;;;8.07;73.19;99005.44;4999257;28;20510;-71
2022/02/17 11:22:17;;;;;;;7.30;2.77;;;;;;;7.83;73.03;99012.53;4998926;28;20175;-66
2022/02/17 11:24:48;;;;;;;5.90;3.00;;;;;;;7.95;72.04;99015.91;4982106;28;20418;-66
2022/02/17 11:27:13;;;;;;;6.30;3.00;;;;;;;7.88;72.73;99031.50;4999474;28;20439;-70
2022/02/17 11:29:41;;;;;;;4.83;2.60;;;;;;;7.53;73.58;99023.97;4998917;28;20482;-68
2022/02/17 11:32:07;;;;;;;5.43;2.53;;;;;;;7.12;95.60;99076.84;4999169;28;20252;-68